createdAt,value
2016-02-15T00:00:17.910Z,51.52
2016-02-15T00:01:17.849Z,51.81
2016-02-15T00:02:17.837Z,51.81
2016-02-15T00:03:17.808Z,52.03
2016-02-15T00:04:17.779Z,51.9
2016-02-15T00:05:17.750Z,51.83
2016-02-15T00:06:17.738Z,51.62
2016-02-15T00:07:17.709Z,51.74
2016-02-15T00:08:17.681Z,51.74
2016-02-15T00:09:17.652Z,51.64
2016-02-15T00:10:17.654Z,51.9
2016-02-15T00:11:17.595Z,51.74
2016-02-15T00:12:17.598Z,51.45
2016-02-15T00:13:17.553Z,51.83
2016-02-15T00:14:17.540Z,51.9
2016-02-15T00:15:17.668Z,51.81
2016-02-15T00:16:17.500Z,51.81
2016-02-15T00:17:17.470Z,51.71
2016-02-15T00:18:17.442Z,51.62
2016-02-15T00:19:17.413Z,51.54
2016-02-15T00:20:17.386Z,52.4
2016-02-15T00:21:17.356Z,51.52
2016-02-15T00:22:17.343Z,51.93
2016-02-15T00:23:17.314Z,52.09
2016-02-15T00:24:17.302Z,51.81
2016-02-15T00:25:17.258Z,51.71
2016-02-15T00:26:17.244Z,51.9
2016-02-15T00:27:17.216Z,51.74
2016-02-15T00:28:17.203Z,52.09
2016-02-15T00:29:17.159Z,51.81
2016-02-15T00:30:17.146Z,51.54
2016-02-15T00:31:17.118Z,51.71
2016-02-15T00:32:17.088Z,51.81
2016-02-15T00:33:17.077Z,51.83
2016-02-15T00:34:17.048Z,51.9
2016-02-15T00:35:17.018Z,51.62
2016-02-15T00:36:16.991Z,51.62
2016-02-15T00:37:16.977Z,51.52
2016-02-15T00:38:16.964Z,51.81
2016-02-15T00:39:16.936Z,51.81
2016-02-15T00:40:16.892Z,51.9
2016-02-15T00:41:16.879Z,51.74
2016-02-15T00:42:16.850Z,51.81
2016-02-15T00:43:16.822Z,51.9
2016-02-15T00:44:16.809Z,52
2016-02-15T00:45:16.781Z,52.09
2016-02-15T00:46:16.751Z,52
2016-02-15T00:47:16.722Z,52.09
2016-02-15T00:48:16.711Z,52.03
2016-02-15T00:49:16.681Z,52.09
2016-02-15T00:50:16.653Z,52
2016-02-15T00:51:16.625Z,52
2016-02-15T00:52:16.596Z,52
2016-02-15T00:53:16.567Z,51.9
2016-02-15T00:54:16.555Z,52
2016-02-15T00:55:16.525Z,52.09
2016-02-15T00:56:16.513Z,52.03
2016-02-15T00:57:16.469Z,52.09
2016-02-15T00:58:16.456Z,51.9
2016-02-15T00:59:16.427Z,52.09
2016-02-15T01:00:16.413Z,52
2016-02-15T01:01:16.386Z,52.12
2016-02-15T01:02:16.357Z,51.83
2016-02-15T01:03:16.343Z,52.09
2016-02-15T01:04:16.315Z,52.03
2016-02-15T01:05:16.287Z,52.09
2016-02-15T01:06:16.259Z,51.74
2016-02-15T01:07:16.465Z,52
2016-02-15T01:08:16.201Z,52
2016-02-15T01:09:16.188Z,52
2016-02-15T01:10:16.160Z,52
2016-02-15T01:11:16.131Z,52.09
2016-02-15T01:12:16.179Z,52.09
2016-02-15T01:13:16.078Z,51.9
2016-02-15T01:14:16.038Z,51.9
2016-02-15T01:15:16.014Z,51.9
2016-02-15T01:16:15.958Z,51.9
2016-02-15T01:17:15.935Z,52
2016-02-15T01:18:15.918Z,51.9
2016-02-15T01:19:15.869Z,51.9
2016-02-15T01:20:15.852Z,52.09
2016-02-15T01:21:15.835Z,51.83
2016-02-15T01:22:15.787Z,51.81
2016-02-15T01:23:15.757Z,51.74
2016-02-15T01:24:15.728Z,52.03
2016-02-15T01:25:15.712Z,52
2016-02-15T01:26:15.682Z,52
2016-02-15T01:27:15.668Z,51.9
2016-02-15T01:28:15.639Z,52.12
2016-02-15T01:29:15.610Z,51.9
2016-02-15T01:30:15.581Z,52.09
2016-02-15T01:31:15.552Z,51.93
2016-02-15T01:32:15.539Z,52
2016-02-15T01:33:15.510Z,52.09
2016-02-15T01:34:15.481Z,52.09
2016-02-15T01:35:15.469Z,51.9
2016-02-15T01:36:15.424Z,51.9
2016-02-15T01:37:15.411Z,52
2016-02-15T01:38:15.415Z,51.9
2016-02-15T01:39:15.354Z,52.19
2016-02-15T01:40:15.342Z,52.09
2016-02-15T01:41:15.329Z,52
2016-02-15T01:42:15.284Z,51.9
2016-02-15T01:43:15.303Z,52.12
2016-02-15T01:44:15.243Z,52
2016-02-15T01:45:15.230Z,51.9
2016-02-15T01:46:15.186Z,51.93
2016-02-15T01:47:15.173Z,52
2016-02-15T01:48:15.144Z,51.9
2016-02-15T01:49:15.117Z,51.9
2016-02-15T01:50:15.103Z,52.19
2016-02-15T01:51:15.058Z,52.09
2016-02-15T01:52:15.046Z,52.09
2016-02-15T01:53:15.033Z,52.19
2016-02-15T01:54:14.988Z,51.9
2016-02-15T01:55:14.960Z,51.9
2016-02-15T01:56:14.963Z,52.03
2016-02-15T01:57:14.934Z,52
2016-02-15T01:58:14.906Z,52
2016-02-15T01:59:14.877Z,51.71
2016-02-15T02:00:14.848Z,52.28
2016-02-15T02:01:14.836Z,51.9
2016-02-15T02:02:14.823Z,52.19
2016-02-15T02:03:14.778Z,52.28
2016-02-15T02:04:14.875Z,52.09
2016-02-15T02:05:14.721Z,52.09
2016-02-15T02:06:14.693Z,52.19
2016-02-15T02:07:14.680Z,52.09
2016-02-15T02:08:14.667Z,52
2016-02-15T02:09:14.623Z,51.81
2016-02-15T02:10:14.595Z,52
2016-02-15T02:11:14.581Z,51.9
2016-02-15T02:12:14.553Z,52
2016-02-15T02:13:14.540Z,51.9
2016-02-15T02:14:14.495Z,52
2016-02-15T02:15:14.483Z,51.81
2016-02-15T02:16:14.454Z,52.28
2016-02-15T02:17:14.425Z,52.19
2016-02-15T02:18:14.428Z,52.19
2016-02-15T02:19:14.384Z,51.9
2016-02-15T02:20:14.371Z,51.9
2016-02-15T02:21:14.327Z,52.09
2016-02-15T02:22:14.330Z,51.9
2016-02-15T02:23:14.286Z,52
2016-02-15T02:24:14.272Z,52.09
2016-02-15T02:25:14.228Z,52.09
2016-02-15T02:26:14.215Z,52.19
2016-02-15T02:27:14.187Z,52.09
2016-02-15T02:28:14.158Z,52
2016-02-15T02:29:14.145Z,51.9
2016-02-15T02:30:14.133Z,51.9
2016-02-15T02:31:14.104Z,52
2016-02-15T02:32:14.091Z,52
2016-02-15T02:33:14.031Z,52.09
2016-02-15T02:34:14.018Z,52
2016-02-15T02:35:13.990Z,52
2016-02-15T02:36:13.961Z,52
2016-02-15T02:37:13.932Z,52
2016-02-15T02:38:13.920Z,52
2016-02-15T02:39:13.907Z,52
2016-02-15T02:40:13.878Z,52.09
2016-02-15T02:41:13.849Z,52.19
2016-02-15T02:42:13.821Z,52.19
2016-02-15T02:43:13.792Z,52.03
2016-02-15T02:44:13.764Z,51.9
2016-02-15T02:45:13.735Z,52
2016-02-15T02:46:13.722Z,51.9
2016-02-15T02:47:13.694Z,51.9
2016-02-15T02:48:13.681Z,52
2016-02-15T02:49:13.653Z,51.9
2016-02-15T02:50:13.623Z,52
2016-02-15T02:51:13.595Z,52
2016-02-15T02:52:13.566Z,52
2016-02-15T02:53:13.538Z,51.9
2016-02-15T02:54:13.525Z,51.81
2016-02-15T02:55:13.496Z,52
2016-02-15T02:56:13.530Z,52
2016-02-15T02:57:13.439Z,52.19
2016-02-15T02:58:13.427Z,52
2016-02-15T02:59:13.397Z,52.09
2016-02-15T03:00:13.385Z,52.19
2016-02-15T03:01:13.607Z,51.9
2016-02-15T03:02:13.327Z,52.19
2016-02-15T03:03:13.299Z,51.81
2016-02-15T03:04:13.270Z,52.09
2016-02-15T03:05:13.258Z,52.19
2016-02-15T03:06:13.291Z,52
2016-02-15T03:07:13.201Z,52.09
2016-02-15T03:08:13.188Z,51.9
2016-02-15T03:09:13.299Z,52.19
2016-02-15T03:10:13.131Z,52.19
2016-02-15T03:11:13.102Z,52.19
2016-02-15T03:12:13.104Z,52.19
2016-02-15T03:13:13.060Z,52
2016-02-15T03:14:13.047Z,52.09
2016-02-15T03:15:13.020Z,52.19
2016-02-15T03:16:12.975Z,52.38
2016-02-15T03:17:12.962Z,52.19
2016-02-15T03:18:12.933Z,52.19
2016-02-15T03:19:12.905Z,52
2016-02-15T03:20:12.892Z,51.9
2016-02-15T03:21:12.847Z,51.9
2016-02-15T03:22:12.834Z,52.09
2016-02-15T03:23:12.806Z,52.03
2016-02-15T03:24:12.794Z,52.19
2016-02-15T03:25:12.764Z,52.19
2016-02-15T03:26:12.736Z,51.71
2016-02-15T03:27:12.708Z,52.09
2016-02-15T03:28:12.695Z,52.19
2016-02-15T03:29:12.666Z,52.19
2016-02-15T03:30:12.637Z,52.19
2016-02-15T03:31:12.609Z,52.19
2016-02-15T03:32:12.580Z,52.28
2016-02-15T03:33:12.568Z,52
2016-02-15T03:34:12.538Z,52.09
2016-02-15T03:35:12.510Z,52.28
2016-02-15T03:36:12.497Z,52.19
2016-02-15T03:37:12.468Z,52
2016-02-15T03:38:12.440Z,52.19
2016-02-15T03:39:12.412Z,52
2016-02-15T03:40:12.399Z,52.19
2016-02-15T03:41:12.401Z,52
2016-02-15T03:42:12.342Z,52.09
2016-02-15T03:43:12.313Z,52
2016-02-15T03:44:12.300Z,52.19
2016-02-15T03:45:12.271Z,52.19
2016-02-15T03:46:12.259Z,52.19
2016-02-15T03:47:12.214Z,52.19
2016-02-15T03:48:12.201Z,52
2016-02-15T03:49:12.173Z,52.19
2016-02-15T03:50:12.145Z,52.19
2016-02-15T03:51:12.131Z,52.19
2016-02-15T03:52:12.087Z,52.19
2016-02-15T03:53:12.059Z,52.19
2016-02-15T03:54:12.062Z,52
2016-02-15T03:55:12.048Z,52.19
2016-02-15T03:56:11.847Z,52.09
2016-02-15T03:57:11.975Z,52.09
2016-02-15T03:58:12.041Z,52.09
2016-02-15T03:59:11.934Z,52.38
2016-02-15T04:00:11.905Z,52.38
2016-02-15T04:01:11.877Z,52.28
2016-02-15T04:02:11.864Z,52.28
2016-02-15T04:03:11.820Z,52.28
2016-02-15T04:04:11.791Z,52.38
2016-02-15T04:05:11.778Z,52
2016-02-15T04:06:11.766Z,52.28
2016-02-15T04:07:11.721Z,52.67
2016-02-15T04:08:11.740Z,52.38
2016-02-15T04:09:11.696Z,52.38
2016-02-15T04:10:11.651Z,52.19
2016-02-15T04:11:11.623Z,52.19
2016-02-15T04:12:11.610Z,52.19
2016-02-15T04:13:11.581Z,52
2016-02-15T04:14:11.553Z,52
2016-02-15T04:15:11.540Z,52.19
2016-02-15T04:16:11.511Z,52
2016-02-15T04:17:11.482Z,52.28
2016-02-15T04:18:11.454Z,52.38
2016-02-15T04:19:11.441Z,52.19
2016-02-15T04:20:11.397Z,52.28
2016-02-15T04:21:11.400Z,52.09
2016-02-15T04:22:11.355Z,52.28
2016-02-15T04:23:11.327Z,52.38
2016-02-15T04:24:11.314Z,52.19
2016-02-15T04:25:11.269Z,52.19
2016-02-15T04:26:11.257Z,52.38
2016-02-15T04:27:11.244Z,52.38
2016-02-15T04:28:11.199Z,52.28
2016-02-15T04:29:11.187Z,52.19
2016-02-15T04:30:11.158Z,52.38
2016-02-15T04:31:11.129Z,52.28
2016-02-15T04:32:11.102Z,52.38
2016-02-15T04:33:11.088Z,52.28
2016-02-15T04:34:11.060Z,52.19
2016-02-15T04:35:11.030Z,52.09
2016-02-15T04:36:11.018Z,52.09
2016-02-15T04:37:11.004Z,52.28
2016-02-15T04:38:10.961Z,52.28
2016-02-15T04:39:10.948Z,52
2016-02-15T04:40:10.903Z,52.19
2016-02-15T04:41:10.891Z,52.48
2016-02-15T04:42:10.862Z,52.28
2016-02-15T04:43:10.834Z,52
2016-02-15T04:44:10.805Z,52.28
2016-02-15T04:45:10.776Z,52.19
2016-02-15T04:46:10.764Z,52
2016-02-15T04:47:10.735Z,52.38
2016-02-15T04:48:10.722Z,52.19
2016-02-15T04:49:10.693Z,52.28
2016-02-15T04:50:10.665Z,52.28
2016-02-15T04:51:10.636Z,52.38
2016-02-15T04:52:10.609Z,52
2016-02-15T04:53:10.595Z,52.28
2016-02-15T04:54:10.566Z,52.19
2016-02-15T04:55:10.773Z,52.19
2016-02-15T04:56:10.509Z,52.19
2016-02-15T04:57:10.480Z,52.28
2016-02-15T04:58:10.467Z,52.38
2016-02-15T04:59:10.439Z,52.38
2016-02-15T05:00:10.472Z,52.19
2016-02-15T05:01:10.398Z,52.38
2016-02-15T05:02:10.369Z,52.38
2016-02-15T05:03:10.340Z,52.09
2016-02-15T05:04:10.328Z,52.19
2016-02-15T05:05:10.299Z,52.28
2016-02-15T05:06:10.270Z,52.48
2016-02-15T05:07:10.258Z,52.19
2016-02-15T05:08:10.244Z,52.28
2016-02-15T05:09:10.201Z,52.19
2016-02-15T05:10:10.172Z,52.48
2016-02-15T05:11:10.144Z,52.28
2016-02-15T05:12:10.130Z,52.28
2016-02-15T05:13:10.115Z,52.28
2016-02-15T05:14:10.087Z,52.28
2016-02-15T05:15:10.042Z,52.28
2016-02-15T05:16:10.013Z,52.28
2016-02-15T05:17:09.985Z,52.28
2016-02-15T05:18:09.972Z,52.38
2016-02-15T05:19:09.943Z,52.48
2016-02-15T05:20:09.931Z,52.28
2016-02-15T05:21:09.901Z,52.48
2016-02-15T05:22:09.873Z,52.28
2016-02-15T05:23:09.845Z,52.48
2016-02-15T05:24:09.816Z,52.28
2016-02-15T05:25:09.803Z,52.38
2016-02-15T05:26:09.775Z,52.38
2016-02-15T05:27:09.761Z,52.48
2016-02-15T05:28:09.718Z,52.28
2016-02-15T05:29:09.705Z,52.09
2016-02-15T05:30:09.675Z,52.28
2016-02-15T05:31:09.648Z,52.28
2016-02-15T05:32:09.619Z,52.38
2016-02-15T05:33:09.606Z,52.38
2016-02-15T05:34:09.593Z,52.48
2016-02-15T05:35:09.564Z,52.28
2016-02-15T05:36:09.521Z,52.48
2016-02-15T05:37:09.508Z,52.38
2016-02-15T05:38:09.479Z,52.28
2016-02-15T05:39:09.449Z,52.48
2016-02-15T05:40:09.422Z,52.28
2016-02-15T05:41:09.409Z,52.28
2016-02-15T05:42:09.379Z,52.19
2016-02-15T05:43:09.367Z,52.28
2016-02-15T05:44:09.338Z,52.28
2016-02-15T05:45:09.310Z,52.38
2016-02-15T05:46:09.282Z,52.38
2016-02-15T05:47:09.284Z,52.28
2016-02-15T05:48:09.240Z,52.28
2016-02-15T05:49:09.196Z,52.38
2016-02-15T05:50:09.198Z,52.48
2016-02-15T05:51:09.154Z,52.28
2016-02-15T05:52:09.360Z,52.19
2016-02-15T05:53:09.129Z,52.38
2016-02-15T05:54:09.084Z,52.28
2016-02-15T05:55:09.072Z,52.28
2016-02-15T05:56:09.028Z,52.28
2016-02-15T05:57:09.108Z,52.28
2016-02-15T05:58:09.001Z,52.38
2016-02-15T05:59:08.958Z,52.48
2016-02-15T06:00:08.928Z,52.48
2016-02-15T06:01:08.900Z,52.28
2016-02-15T06:02:08.886Z,52.38
2016-02-15T06:03:08.859Z,52.38
2016-02-15T06:04:08.830Z,52.38
2016-02-15T06:05:08.817Z,52.19
2016-02-15T06:06:08.788Z,52.28
2016-02-15T06:07:08.760Z,52.09
2016-02-15T06:08:08.747Z,52.09
2016-02-15T06:09:08.718Z,52.09
2016-02-15T06:10:08.690Z,52.28
2016-02-15T06:11:08.661Z,52.38
2016-02-15T06:12:08.633Z,52.19
2016-02-15T06:13:08.620Z,52.38
2016-02-15T06:14:08.591Z,52.28
2016-02-15T06:15:08.562Z,52.38
2016-02-15T06:16:08.535Z,52.38
2016-02-15T06:17:08.537Z,52.19
2016-02-15T06:18:08.492Z,52.57
2016-02-15T06:19:08.465Z,52.38
2016-02-15T06:20:08.435Z,52.67
2016-02-15T06:21:08.423Z,52.28
2016-02-15T06:22:08.394Z,52.28
2016-02-15T06:23:08.365Z,52.28
2016-02-15T06:24:08.337Z,52.67
2016-02-15T06:25:08.324Z,52.19
2016-02-15T06:26:08.311Z,52.28
2016-02-15T06:27:08.266Z,52.38
2016-02-15T06:28:08.239Z,51.9
2016-02-15T06:29:08.225Z,52.19
2016-02-15T06:30:08.197Z,52.38
2016-02-15T06:31:08.169Z,52.38
2016-02-15T06:32:08.171Z,52.28
2016-02-15T06:33:08.127Z,51.9
2016-02-15T06:34:08.098Z,52.28
2016-02-15T06:35:08.100Z,52.38
2016-02-15T06:36:08.041Z,52.19
2016-02-15T06:37:08.013Z,52.19
2016-02-15T06:38:07.999Z,51.9
2016-02-15T06:39:07.972Z,52.38
2016-02-15T06:40:07.943Z,52.38
2016-02-15T06:41:07.913Z,52
2016-02-15T06:42:07.902Z,52.38
2016-02-15T06:43:07.872Z,52.28
2016-02-15T06:44:07.859Z,52.76
2016-02-15T06:45:07.815Z,52.28
2016-02-15T06:46:07.834Z,52.38
2016-02-15T06:47:07.773Z,52.28
2016-02-15T06:48:07.746Z,52.48
2016-02-15T06:49:07.732Z,52.48
2016-02-15T06:50:07.703Z,52.19
2016-02-15T06:51:07.676Z,52.38
2016-02-15T06:52:07.678Z,52.67
2016-02-15T06:53:07.633Z,52.38
2016-02-15T06:54:07.824Z,52.28
2016-02-15T06:55:07.576Z,52.28
2016-02-15T06:56:07.548Z,52.28
2016-02-15T06:57:07.535Z,52.38
2016-02-15T06:58:07.491Z,52.09
2016-02-15T06:59:07.478Z,52.19
2016-02-15T07:00:07.450Z,52.19
2016-02-15T07:01:07.420Z,52
2016-02-15T07:02:07.408Z,52.19
2016-02-15T07:03:07.380Z,52.28
2016-02-15T07:04:07.366Z,52.67
2016-02-15T07:05:07.338Z,52.38
2016-02-15T07:06:07.309Z,52.28
2016-02-15T07:07:07.296Z,52.48
2016-02-15T07:08:07.268Z,52.28
2016-02-15T07:09:07.224Z,52.76
2016-02-15T07:10:07.210Z,52.28
2016-02-15T07:11:07.182Z,52.38
2016-02-15T07:12:07.154Z,52.28
2016-02-15T07:13:07.124Z,51.9
2016-02-15T07:14:07.097Z,52.28
2016-02-15T07:15:07.083Z,52.28
2016-02-15T07:16:07.054Z,52.28
2016-02-15T07:17:07.027Z,52.38
2016-02-15T07:18:06.998Z,52.28
2016-02-15T07:19:06.985Z,52.28
2016-02-15T07:20:06.956Z,52.76
2016-02-15T07:21:06.928Z,52.38
2016-02-15T07:22:06.915Z,52.28
2016-02-15T07:23:06.887Z,52.28
2016-02-15T07:24:06.874Z,52.67
2016-02-15T07:25:06.828Z,52.19
2016-02-15T07:26:06.817Z,52.48
2016-02-15T07:27:06.787Z,52.28
2016-02-15T07:28:06.774Z,52.48
2016-02-15T07:29:06.730Z,53.14
2016-02-15T07:30:06.702Z,52.28
2016-02-15T07:31:06.673Z,52.67
2016-02-15T07:32:06.661Z,52.38
2016-02-15T07:33:06.631Z,52.67
2016-02-15T07:34:06.603Z,52.48
2016-02-15T07:35:06.591Z,52.19
2016-02-15T07:36:06.561Z,52.67
2016-02-15T07:37:06.533Z,52.28
2016-02-15T07:38:06.520Z,52.48
2016-02-15T07:39:06.491Z,52.57
2016-02-15T07:40:06.464Z,52.09
2016-02-15T07:41:06.435Z,52.28
2016-02-15T07:42:06.422Z,53.05
2016-02-15T07:43:06.393Z,52.38
2016-02-15T07:44:06.365Z,52.09
2016-02-15T07:45:06.336Z,52.28
2016-02-15T07:46:06.307Z,52.28
2016-02-15T07:47:06.294Z,52.38
2016-02-15T07:48:06.281Z,52.28
2016-02-15T07:49:06.238Z,52.38
2016-02-15T07:50:06.240Z,52.28
2016-02-15T07:51:06.384Z,52.28
2016-02-15T07:52:06.182Z,52.19
2016-02-15T07:53:06.139Z,52.19
2016-02-15T07:54:06.110Z,52.19
2016-02-15T07:55:06.097Z,52.19
2016-02-15T07:56:06.068Z,52.48
2016-02-15T07:57:06.040Z,52.38
2016-02-15T07:58:06.012Z,52
2016-02-15T07:59:05.983Z,52.38
2016-02-15T08:00:05.970Z,52
2016-02-15T08:01:05.942Z,52.28
2016-02-15T08:02:05.928Z,52.28
2016-02-15T08:03:05.884Z,52
2016-02-15T08:04:05.872Z,52.19
2016-02-15T08:05:05.843Z,52.28
2016-02-15T08:06:05.814Z,52.48
2016-02-15T08:07:05.786Z,52.19
2016-02-15T08:08:05.788Z,52
2016-02-15T08:09:05.760Z,52.19
2016-02-15T08:10:05.716Z,52.28
2016-02-15T08:11:05.702Z,52.28
2016-02-15T08:12:05.674Z,52.09
2016-02-15T08:13:05.646Z,52.38
2016-02-15T08:14:05.617Z,52.38
2016-02-15T08:15:05.589Z,52.38
2016-02-15T08:16:05.419Z,52.28
2016-02-15T08:17:05.546Z,52.19
2016-02-15T08:18:05.519Z,52.38
2016-02-15T08:19:05.490Z,52.38
2016-02-15T08:20:05.477Z,52.38
2016-02-15T08:21:05.432Z,52.38
2016-02-15T08:22:05.420Z,52.38
2016-02-15T08:23:05.407Z,52.28
2016-02-15T08:24:05.363Z,52.28
2016-02-15T08:25:05.350Z,52.38
2016-02-15T08:26:05.320Z,52.38
2016-02-15T08:27:05.309Z,52.19
2016-02-15T08:28:05.279Z,52.28
2016-02-15T08:29:05.250Z,52.28
2016-02-15T08:30:05.223Z,52.38
2016-02-15T08:31:05.194Z,52.38
2016-02-15T08:32:05.165Z,52.28
2016-02-15T08:33:05.152Z,52.28
2016-02-15T08:34:04.967Z,52.19
2016-02-15T08:35:05.095Z,52.09
2016-02-15T08:36:05.067Z,52.48
2016-02-15T08:37:05.054Z,52.28
2016-02-15T08:38:05.025Z,52.28
2016-02-15T08:39:04.996Z,52.19
2016-02-15T08:40:04.983Z,52
2016-02-15T08:41:04.956Z,52.09
2016-02-15T08:42:04.927Z,52.09
2016-02-15T08:43:04.898Z,52.38
2016-02-15T08:44:04.886Z,52.19
2016-02-15T08:45:04.872Z,52.28
2016-02-15T08:46:04.844Z,52
2016-02-15T08:47:04.799Z,52
2016-02-15T08:48:05.037Z,52
2016-02-15T08:49:04.757Z,52.19
2016-02-15T08:50:04.746Z,52
2016-02-15T08:51:04.716Z,52.09
2016-02-15T08:52:04.687Z,52.19
2016-02-15T08:53:04.644Z,52.09
2016-02-15T08:54:04.631Z,52.28
2016-02-15T08:55:04.617Z,52
2016-02-15T08:56:04.574Z,52
2016-02-15T08:57:04.545Z,52.19
2016-02-15T08:58:04.532Z,52.38
2016-02-15T08:59:04.504Z,52.09
2016-02-15T09:00:04.490Z,52.09
2016-02-15T09:01:04.462Z,51.9
2016-02-15T09:02:04.434Z,52
2016-02-15T09:03:04.405Z,52.09
2016-02-15T09:04:04.376Z,52.19
2016-02-15T09:05:04.347Z,52.19
2016-02-15T09:06:04.336Z,52
2016-02-15T09:07:04.322Z,52.09
2016-02-15T09:08:04.278Z,52
2016-02-15T09:09:04.249Z,51.81
2016-02-15T09:10:04.252Z,51.81
2016-02-15T09:11:04.208Z,51.9
2016-02-15T09:12:04.179Z,51.9
2016-02-15T09:13:04.150Z,51.9
2016-02-15T09:14:04.122Z,52.09
2016-02-15T09:15:04.113Z,51.71
2016-02-15T09:16:04.100Z,52.19
2016-02-15T09:17:04.056Z,51.9
2016-02-15T09:18:04.028Z,51.81
2016-02-15T09:19:03.998Z,51.62
2016-02-15T09:20:03.986Z,51.62
2016-02-15T09:21:03.973Z,51.71
2016-02-15T09:22:03.928Z,51.81
2016-02-15T09:23:03.916Z,51.81
2016-02-15T09:24:03.887Z,51.62
2016-02-15T09:25:03.858Z,51.71
2016-02-15T09:26:03.830Z,51.71
2016-02-15T09:27:03.817Z,51.71
2016-02-15T09:28:03.788Z,51.81
2016-02-15T09:29:03.760Z,51.71
2016-02-15T09:30:03.732Z,51.81
2016-02-15T09:31:03.702Z,51.81
2016-02-15T09:32:03.690Z,51.62
2016-02-15T09:33:03.661Z,51.62
2016-02-15T09:34:03.648Z,51.81
2016-02-15T09:35:03.620Z,51.9
2016-02-15T09:36:03.576Z,51.9
2016-02-15T09:37:03.563Z,51.9
2016-02-15T09:38:03.565Z,52.48
2016-02-15T09:39:03.506Z,51.71
2016-02-15T09:40:03.492Z,51.81
2016-02-15T09:41:03.479Z,51.62
2016-02-15T09:42:03.467Z,51.81
2016-02-15T09:43:03.423Z,51.81
2016-02-15T09:44:03.394Z,51.81
2016-02-15T09:45:03.632Z,51.71
2016-02-15T09:46:03.337Z,51.71
2016-02-15T09:47:03.323Z,51.71
2016-02-15T09:48:03.296Z,51.71
2016-02-15T09:49:03.267Z,51.81
2016-02-15T09:50:03.238Z,51.81
2016-02-15T09:51:03.242Z,51.71
2016-02-15T09:52:03.197Z,51.81
2016-02-15T09:53:03.169Z,51.81
2016-02-15T09:54:03.156Z,51.71
2016-02-15T09:55:03.111Z,51.81
2016-02-15T09:56:03.083Z,51.81
2016-02-15T09:57:03.085Z,51.71
2016-02-15T09:58:03.041Z,51.9
2016-02-15T09:59:03.013Z,51.62
2016-02-15T10:00:02.999Z,51.71
2016-02-15T10:01:02.987Z,51.71
2016-02-15T10:02:02.974Z,51.71
2016-02-15T10:03:02.930Z,51.81
2016-02-15T10:04:02.901Z,51.62
2016-02-15T10:05:02.872Z,51.81
2016-02-15T10:06:02.860Z,51.9
2016-02-15T10:07:02.815Z,51.81
2016-02-15T10:08:02.787Z,51.81
2016-02-15T10:09:02.774Z,51.62
2016-02-15T10:10:02.761Z,51.81
2016-02-15T10:11:02.717Z,51.71
2016-02-15T10:12:02.704Z,51.62
2016-02-15T10:13:02.675Z,51.71
2016-02-15T10:14:02.646Z,51.71
2016-02-15T10:15:02.633Z,51.71
2016-02-15T10:16:02.606Z,51.81
2016-02-15T10:17:02.576Z,51.62
2016-02-15T10:18:02.548Z,51.71
2016-02-15T10:19:02.533Z,51.9
2016-02-15T10:20:02.491Z,51.71
2016-02-15T10:21:02.466Z,51.9
2016-02-15T10:22:02.409Z,52
2016-02-15T10:23:02.398Z,51.9
2016-02-15T10:24:02.342Z,51.62
2016-02-15T10:25:02.309Z,52
2016-02-15T10:26:02.292Z,52
2016-02-15T10:27:02.243Z,51.9
2016-02-15T10:28:02.209Z,52
2016-02-15T10:29:02.192Z,51.9
2016-02-15T10:30:02.162Z,51.9
2016-02-15T10:31:02.146Z,51.9
2016-02-15T10:32:02.116Z,51.9
2016-02-15T10:33:02.101Z,51.71
2016-02-15T10:34:02.087Z,51.9
2016-02-15T10:35:02.042Z,51.9
2016-02-15T10:36:02.138Z,52
2016-02-15T10:37:01.984Z,52
2016-02-15T10:38:01.971Z,51.81
2016-02-15T10:39:01.926Z,51.62
2016-02-15T10:40:01.913Z,52
2016-02-15T10:41:01.900Z,51.52
2016-02-15T10:42:01.856Z,51.62
2016-02-15T10:43:01.827Z,52.28
2016-02-15T10:44:01.813Z,52.09
2016-02-15T10:45:01.785Z,51.71
2016-02-15T10:46:01.755Z,51.71
2016-02-15T10:47:01.743Z,51.71
2016-02-15T10:48:01.699Z,51.23
2016-02-15T10:49:01.685Z,52.28
2016-02-15T10:50:01.674Z,51.43
2016-02-15T10:51:01.644Z,51.9
2016-02-15T10:52:01.615Z,51.62
2016-02-15T10:53:01.588Z,51.71
2016-02-15T10:54:01.590Z,51.81
2016-02-15T10:55:01.529Z,51.62
2016-02-15T10:56:01.518Z,52.09
2016-02-15T10:57:01.489Z,52.28
2016-02-15T10:58:01.460Z,52
2016-02-15T10:59:01.432Z,51.81
2016-02-15T11:00:01.434Z,51.52
2016-02-15T11:01:01.390Z,51.33
2016-02-15T11:02:01.361Z,51.14
2016-02-15T11:03:01.333Z,51.62
2016-02-15T11:04:01.304Z,51.62
2016-02-15T11:05:01.291Z,51.62
2016-02-15T11:06:01.264Z,51.62
2016-02-15T11:07:01.234Z,51.74
2016-02-15T11:08:01.221Z,51.62
2016-02-15T11:09:01.193Z,51.71
2016-02-15T11:10:01.164Z,51.62
2016-02-15T11:11:01.151Z,51.33
2016-02-15T11:12:01.123Z,51.43
2016-02-15T11:13:01.094Z,51.23
2016-02-15T11:14:01.066Z,51.14
2016-02-15T11:15:01.038Z,51.43
2016-02-15T11:16:01.024Z,51.33
2016-02-15T11:17:00.980Z,51.14
2016-02-15T11:18:00.982Z,50.95
2016-02-15T11:19:00.938Z,50.95
2016-02-15T11:20:00.910Z,51.43
2016-02-15T11:21:00.881Z,51.43
2016-02-15T11:22:00.869Z,51.52
2016-02-15T11:23:00.840Z,50.95
2016-02-15T11:24:00.811Z,50.95
2016-02-15T11:25:00.815Z,50.95
2016-02-15T11:26:00.770Z,51.23
2016-02-15T11:27:00.772Z,51.23
2016-02-15T11:28:00.713Z,50.76
2016-02-15T11:29:00.700Z,50.85
2016-02-15T11:30:00.671Z,50.95
2016-02-15T11:31:00.643Z,50.95
2016-02-15T11:32:00.629Z,51.14
2016-02-15T11:33:00.898Z,50.76
2016-02-15T11:34:00.572Z,50.76
2016-02-15T11:35:00.544Z,50.95
2016-02-15T11:36:00.531Z,50.95
2016-02-15T11:37:00.502Z,50.95
2016-02-15T11:38:00.615Z,50.98
2016-02-15T11:39:00.445Z,51.07
2016-02-15T11:40:00.432Z,50.95
2016-02-15T11:41:00.403Z,50.85
2016-02-15T11:42:00.438Z,51.04
2016-02-15T11:43:00.363Z,51.04
2016-02-15T11:44:00.318Z,51.07
2016-02-15T11:45:00.305Z,50.59
2016-02-15T11:46:00.277Z,50.59
2016-02-15T11:47:00.249Z,50.57
2016-02-15T11:48:00.235Z,50.59
2016-02-15T11:49:00.207Z,50.67
2016-02-15T11:50:00.194Z,50.67
2016-02-15T11:51:00.149Z,50.69
2016-02-15T11:52:00.137Z,50.67
2016-02-15T11:53:00.108Z,50.57
2016-02-15T11:54:00.095Z,50.78
2016-02-15T11:55:00.066Z,50.85
2016-02-15T11:56:00.038Z,50.85
2016-02-15T11:57:00.009Z,50.69
2016-02-15T11:58:00.028Z,50.98
2016-02-15T11:58:59.952Z,50.95
2016-02-15T11:59:59.954Z,50.67
2016-02-15T12:00:59.911Z,50.95
2016-02-15T12:01:59.898Z,50.98
2016-02-15T12:02:59.854Z,50.98
2016-02-15T12:03:59.840Z,50.95
2016-02-15T12:04:59.812Z,50.57
2016-02-15T12:05:59.784Z,50.67
2016-02-15T12:06:59.770Z,50.78
2016-02-15T12:07:59.742Z,50.78
2016-02-15T12:08:59.714Z,50.57
2016-02-15T12:09:59.700Z,50.59
2016-02-15T12:10:59.672Z,50.57
2016-02-15T12:11:59.628Z,50.69
2016-02-15T12:12:59.614Z,50.69
2016-02-15T12:13:59.586Z,50.78
2016-02-15T12:14:59.574Z,50.49
2016-02-15T12:15:59.545Z,50.57
2016-02-15T12:16:59.532Z,50.47
2016-02-15T12:17:59.488Z,50.78
2016-02-15T12:18:59.397Z,50.69
2016-02-15T12:19:59.447Z,50.67
2016-02-15T12:20:59.418Z,50.67
2016-02-15T12:21:59.421Z,50.88
2016-02-15T12:22:59.377Z,50.98
2016-02-15T12:23:59.348Z,51.04
2016-02-15T12:24:59.319Z,50.98
2016-02-15T12:25:59.307Z,50.95
2016-02-15T12:26:59.277Z,50.95
2016-02-15T12:27:59.249Z,51.04
2016-02-15T12:28:59.220Z,50.85
2016-02-15T12:29:59.207Z,50.95
2016-02-15T12:30:59.179Z,50.88
2016-02-15T12:31:59.134Z,50.95
2016-02-15T12:32:59.122Z,50.85
2016-02-15T12:33:59.093Z,50.76
2016-02-15T12:34:59.080Z,51.04
2016-02-15T12:35:59.051Z,50.85
2016-02-15T12:36:59.039Z,50.67
2016-02-15T12:37:59.026Z,51.04
2016-02-15T12:38:58.981Z,50.85
2016-02-15T12:39:58.953Z,50.57
2016-02-15T12:40:58.940Z,50.85
2016-02-15T12:41:58.896Z,50.95
2016-02-15T12:42:58.884Z,50.95
2016-02-15T12:43:58.855Z,50.85
2016-02-15T12:44:58.842Z,50.95
2016-02-15T12:45:58.797Z,50.95
2016-02-15T12:46:58.785Z,50.95
2016-02-15T12:47:58.755Z,50.95
2016-02-15T12:48:58.743Z,50.95
2016-02-15T12:49:58.714Z,51.04
2016-02-15T12:50:58.686Z,51.04
2016-02-15T12:51:58.657Z,50.85
2016-02-15T12:52:58.629Z,50.95
2016-02-15T12:53:58.600Z,50.76
2016-02-15T12:54:58.571Z,50.95
2016-02-15T12:55:58.559Z,51.23
2016-02-15T12:56:58.530Z,50.95
2016-02-15T12:57:58.518Z,50.95
2016-02-15T12:58:58.488Z,50.95
2016-02-15T12:59:58.475Z,50.85
2016-02-15T13:00:58.463Z,50.95
2016-02-15T13:01:58.418Z,50.95
2016-02-15T13:02:58.389Z,50.85